createdAt,value
2023-04-04T00:02:15.319Z,4.26
2023-04-04T00:04:45.718Z,4.58
2023-04-04T00:07:16.113Z,5.11
2023-04-04T00:09:50.672Z,5.45
2023-04-04T00:12:24.221Z,5.49
2023-04-04T00:14:51.680Z,5.39
2023-04-04T00:17:22.407Z,5.37
2023-04-04T00:19:52.867Z,5.48
2023-04-04T00:22:24.288Z,5.08
2023-04-04T00:24:54.486Z,4.93
2023-04-04T00:27:27.050Z,4.99
2023-04-04T00:29:57.319Z,3.09
2023-04-04T00:32:27.693Z,4.91
2023-04-04T00:34:57.933Z,4.41
2023-04-04T00:37:28.469Z,3.83
2023-04-04T00:39:59.900Z,4.49
2023-04-04T00:42:30.172Z,4.63
2023-04-04T00:45:02.159Z,4.81
2023-04-04T00:47:33.026Z,3.46
2023-04-04T00:50:03.465Z,4.21
2023-04-04T00:52:37.195Z,2.94
2023-04-04T00:55:09.347Z,4.09
2023-04-04T00:57:39.073Z,4.25
2023-04-04T01:00:11.690Z,4.51
2023-04-04T01:02:40.464Z,4.77
2023-04-04T01:05:11.969Z,5.04
2023-04-04T01:07:42.156Z,4.95
2023-04-04T01:10:16.375Z,4.99
2023-04-04T01:12:47.574Z,4.91
2023-04-04T01:15:17.507Z,4.93
2023-04-04T01:17:48.947Z,4.91
2023-04-04T01:20:22.605Z,5.09
2023-04-04T01:22:50.731Z,4.91
2023-04-04T01:25:34.066Z,4.99
2023-04-04T01:28:04.455Z,4.94
2023-04-04T01:30:33.000Z,4.27
2023-04-04T01:33:04.650Z,4.80
2023-04-04T01:35:43.080Z,4.81
2023-04-04T01:38:28.089Z,4.57
2023-04-04T01:41:01.790Z,4.41
2023-04-04T01:43:33.050Z,4.13
2023-04-04T01:46:03.968Z,3.94
2023-04-04T01:48:30.258Z,3.82
2023-04-04T01:51:02.239Z,3.91
2023-04-04T01:53:32.887Z,4.47
2023-04-04T01:55:59.249Z,4.18
2023-04-04T01:58:26.046Z,4.21
2023-04-04T02:01:00.616Z,4.15
2023-04-04T02:03:28.708Z,4.33
2023-04-04T02:05:54.924Z,4.31
2023-04-04T02:08:21.171Z,4.32
2023-04-04T02:10:57.812Z,4.26
2023-04-04T02:13:24.317Z,4.24
2023-04-04T02:15:51.702Z,4.27
2023-04-04T02:18:17.985Z,3.64
2023-04-04T02:20:55.757Z,4.14
2023-04-04T02:23:21.911Z,4.20
2023-04-04T02:25:50.528Z,4.03
2023-04-04T02:28:20.698Z,4.16
2023-04-04T02:30:51.579Z,4.01
2023-04-04T02:33:22.295Z,4.24
2023-04-04T02:35:52.488Z,4.26
2023-04-04T02:38:23.259Z,4.23
2023-04-04T02:40:53.156Z,4.05
2023-04-04T02:43:23.827Z,4.14
2023-04-04T02:45:56.713Z,4.14
2023-04-04T02:48:28.160Z,4.17
2023-04-04T02:50:58.052Z,3.85
2023-04-04T02:53:28.449Z,2.89
2023-04-04T02:55:58.539Z,3.58
2023-04-04T02:58:31.593Z,3.72
2023-04-04T03:00:59.689Z,3.85
2023-04-04T03:03:30.982Z,3.76
2023-04-04T03:06:00.323Z,3.27
2023-04-04T03:08:30.710Z,3.60
2023-04-04T03:11:01.070Z,3.76
2023-04-04T03:13:34.214Z,3.59
2023-04-04T03:16:06.055Z,2.18
2023-04-04T03:18:35.282Z,3.69
2023-04-04T03:21:10.981Z,4.08
2023-04-04T03:23:42.393Z,4.15
2023-04-04T03:26:12.263Z,4.11
2023-04-04T03:28:42.644Z,4.07
2023-04-04T03:31:12.860Z,4.00
2023-04-04T03:33:44.442Z,3.98
2023-04-04T03:36:14.390Z,4.15
2023-04-04T03:38:48.298Z,4.05
2023-04-04T03:41:20.007Z,2.77
2023-04-04T03:43:50.670Z,3.79
2023-04-04T03:46:20.901Z,3.83
2023-04-04T03:48:51.928Z,3.80
2023-04-04T03:51:24.158Z,3.88
2023-04-04T03:53:53.489Z,3.76
2023-04-04T03:56:31.909Z,3.47
2023-04-04T03:59:01.295Z,3.60
2023-04-04T04:01:31.887Z,3.71
2023-04-04T04:04:04.121Z,3.61
2023-04-04T04:06:36.080Z,2.55
2023-04-04T04:09:05.963Z,3.09
2023-04-04T04:11:36.161Z,2.73
2023-04-04T04:14:07.027Z,2.87
2023-04-04T04:16:41.238Z,3.30
2023-04-04T04:19:08.397Z,3.68
2023-04-04T04:21:44.157Z,3.68
2023-04-04T04:24:14.946Z,3.74
2023-04-04T04:26:45.328Z,3.81
2023-04-04T04:29:18.873Z,3.72
2023-04-04T04:31:52.155Z,3.79
2023-04-04T04:34:21.005Z,3.84
2023-04-04T04:36:53.113Z,2.16
2023-04-04T04:39:22.627Z,3.62
2023-04-04T04:41:53.185Z,3.67
2023-04-04T04:44:23.474Z,3.75
2023-04-04T04:46:58.046Z,3.51
2023-04-04T04:49:28.178Z,3.71
2023-04-04T04:51:58.972Z,3.81
2023-04-04T04:54:29.003Z,2.96
2023-04-04T04:57:00.700Z,2.71
2023-04-04T04:59:30.204Z,3.63
2023-04-04T05:02:00.925Z,3.52
2023-04-04T05:04:34.592Z,2.63
2023-04-04T05:07:07.535Z,3.63
2023-04-04T05:09:36.210Z,3.63
2023-04-04T05:12:07.114Z,3.66
2023-04-04T05:14:36.924Z,3.64
2023-04-04T05:17:07.159Z,3.10
2023-04-04T05:19:37.486Z,2.99
2023-04-04T05:22:11.004Z,3.12
2023-04-04T05:24:42.434Z,3.16
2023-04-04T05:27:11.551Z,3.09
2023-04-04T05:29:42.072Z,3.60
2023-04-04T05:32:12.635Z,2.61
2023-04-04T05:34:43.656Z,3.72
2023-04-04T05:37:14.920Z,3.80
2023-04-04T05:39:48.387Z,3.98
2023-04-04T05:42:19.470Z,3.05
2023-04-04T05:44:49.865Z,4.11
2023-04-04T05:47:23.445Z,4.22
2023-04-04T05:49:54.375Z,4.27
2023-04-04T05:52:24.756Z,4.17
2023-04-04T05:54:54.554Z,4.31
2023-04-04T05:57:25.634Z,4.27
2023-04-04T05:59:56.733Z,4.59
2023-04-04T06:02:28.505Z,4.63
2023-04-04T06:05:00.939Z,4.84
2023-04-04T06:07:32.371Z,4.71
2023-04-04T06:10:04.332Z,4.84
2023-04-04T06:12:33.300Z,4.68
2023-04-04T06:15:05.830Z,4.58
2023-04-04T06:17:35.558Z,4.87
2023-04-04T06:20:07.639Z,4.92
2023-04-04T06:22:43.498Z,3.57
2023-04-04T06:25:13.935Z,4.39
2023-04-04T06:27:43.817Z,3.69
2023-04-04T06:30:17.748Z,4.90
2023-04-04T06:32:48.759Z,5.29
2023-04-04T06:35:20.731Z,4.95
2023-04-04T06:37:57.041Z,5.47
2023-04-04T06:40:23.090Z,5.34
2023-04-04T06:42:57.156Z,5.27
2023-04-04T06:45:24.364Z,5.56
2023-04-04T06:47:59.435Z,3.70
2023-04-04T06:50:31.660Z,4.74
2023-04-04T06:53:02.769Z,5.33
2023-04-04T06:55:30.481Z,4.47
2023-04-04T06:58:02.328Z,4.73
2023-04-04T07:00:33.804Z,5.00
2023-04-04T07:03:05.415Z,5.08
2023-04-04T07:05:39.196Z,3.99
2023-04-04T07:08:07.825Z,5.06
2023-04-04T07:10:39.705Z,1.36
2023-04-04T07:13:17.435Z,4.72
2023-04-04T07:15:49.366Z,5.39
2023-04-04T07:18:19.181Z,5.73
2023-04-04T07:20:53.526Z,5.67
2023-04-04T07:23:26.477Z,6.03
2023-04-04T07:25:56.435Z,6.69
2023-04-04T07:28:27.037Z,6.02
2023-04-04T07:31:03.484Z,5.63
2023-04-04T07:33:29.783Z,6.80
2023-04-04T07:36:00.668Z,5.76
2023-04-04T07:38:35.547Z,6.69
2023-04-04T07:41:05.781Z,6.56
2023-04-04T07:43:37.650Z,5.04
2023-04-04T07:46:11.461Z,7.18
2023-04-04T07:48:42.505Z,5.80
2023-04-04T07:51:13.472Z,6.40
2023-04-04T07:53:43.560Z,5.97
2023-04-04T07:56:14.306Z,5.90
2023-04-04T07:58:45.391Z,5.27
2023-04-04T08:01:15.818Z,7.03
2023-04-04T08:03:52.681Z,5.61
2023-04-04T08:06:21.547Z,6.45
2023-04-04T08:08:51.655Z,7.55
2023-04-04T08:11:27.882Z,7.41
2023-04-04T08:13:57.476Z,7.38
2023-04-04T08:16:28.044Z,8.20
2023-04-04T08:19:00.134Z,7.50
2023-04-04T08:21:29.176Z,7.61
2023-04-04T08:24:00.219Z,7.39
2023-04-04T08:26:31.277Z,6.19
2023-04-04T08:29:05.503Z,6.42
2023-04-04T08:31:35.619Z,7.75
2023-04-04T08:34:07.556Z,8.40
2023-04-04T08:36:36.362Z,8.64
2023-04-04T08:39:07.066Z,8.97
2023-04-04T08:41:37.416Z,8.65
2023-04-04T08:44:08.776Z,5.92
2023-04-04T08:46:44.856Z,6.00
2023-04-04T08:49:15.553Z,6.89
2023-04-04T08:51:44.995Z,5.82
2023-04-04T08:54:16.444Z,6.42
2023-04-04T08:56:44.931Z,5.59
2023-04-04T08:59:18.069Z,6.59
2023-04-04T09:01:46.038Z,7.17
2023-04-04T09:04:20.629Z,7.35
2023-04-04T09:06:49.562Z,7.15
2023-04-04T09:09:19.445Z,7.78
2023-04-04T09:11:50.565Z,7.86
2023-04-04T09:14:20.591Z,6.84
2023-04-04T09:16:51.448Z,8.72
2023-04-04T09:19:23.192Z,7.58
2023-04-04T09:21:54.857Z,8.05
2023-04-04T09:24:38.588Z,6.81
2023-04-04T09:27:04.717Z,7.27
2023-04-04T09:29:37.621Z,6.45
2023-04-04T09:32:06.862Z,7.27
2023-04-04T09:34:33.127Z,8.65
2023-04-04T09:37:04.346Z,8.29
2023-04-04T09:39:33.939Z,9.40
2023-04-04T09:42:04.260Z,7.64
2023-04-04T09:44:36.182Z,9.02
2023-04-04T09:49:58.139Z,9.67
2023-04-04T09:52:24.461Z,8.92
2023-04-04T09:55:00.163Z,8.34
2023-04-04T09:57:28.952Z,9.22
2023-04-04T09:59:59.938Z,8.24
2023-04-04T10:02:40.504Z,9.08
2023-04-04T10:05:09.592Z,7.23
2023-04-04T10:07:38.619Z,8.73
2023-04-04T10:10:06.086Z,9.33
2023-04-04T10:12:37.374Z,9.74
2023-04-04T10:15:04.544Z,10.55
2023-04-04T10:17:35.849Z,8.43
2023-04-04T10:20:11.001Z,9.87
2023-04-04T10:22:38.164Z,7.49
2023-04-04T10:25:06.794Z,7.92
2023-04-04T10:27:33.572Z,7.97
2023-04-04T10:30:05.564Z,8.93
2023-04-04T10:32:44.409Z,8.47
2023-04-04T10:35:12.187Z,8.96
2023-04-04T10:37:53.881Z,9.28
2023-04-04T10:40:21.438Z,9.39
2023-04-04T10:42:49.389Z,8.87
2023-04-04T10:45:20.563Z,10.25
2023-04-04T10:47:50.945Z,8.68
2023-04-04T10:50:19.924Z,9.43
2023-04-04T10:52:46.483Z,10.13
2023-04-04T10:55:14.289Z,10.55
2023-04-04T10:57:42.734Z,8.99
2023-04-04T11:00:12.251Z,9.85
2023-04-04T11:02:56.145Z,10.28
2023-04-04T11:05:27.277Z,9.48
2023-04-04T11:08:09.422Z,8.09
2023-04-04T11:10:36.497Z,9.33
2023-04-04T11:13:13.402Z,10.18
2023-04-04T11:15:52.643Z,9.55
2023-04-04T11:18:39.592Z,10.50
2023-04-04T11:21:23.281Z,9.37
2023-04-04T11:23:58.048Z,11.64
2023-04-04T11:26:29.240Z,11.27
2023-04-04T11:29:04.314Z,10.44
2023-04-04T11:31:45.470Z,10.33
2023-04-04T11:34:30.133Z,9.67
2023-04-04T11:37:01.175Z,10.24
2023-04-04T11:39:30.070Z,11.77
2023-04-04T11:42:12.929Z,10.33
2023-04-04T11:45:01.627Z,9.65
2023-04-04T11:47:30.718Z,11.44
2023-04-04T11:49:59.789Z,11.99
2023-04-04T11:52:40.595Z,11.74
2023-04-04T11:55:16.476Z,9.69
2023-04-04T11:57:42.749Z,8.94
2023-04-04T12:00:34.219Z,10.58
2023-04-04T12:03:10.725Z,9.12
2023-04-04T12:05:46.048Z,8.93
2023-04-04T12:08:17.394Z,10.45
2023-04-04T12:10:49.448Z,9.78
2023-04-04T12:13:30.453Z,11.51
2023-04-04T12:16:01.824Z,12.21
2023-04-04T12:18:32.559Z,11.79
2023-04-04T12:21:06.868Z,12.24
2023-04-04T12:23:37.484Z,11.23
2023-04-04T12:26:08.918Z,10.36
2023-04-04T12:28:45.027Z,11.77
2023-04-04T12:31:16.775Z,10.74
2023-04-04T12:33:47.846Z,10.57
2023-04-04T12:36:29.090Z,10.22
2023-04-04T12:39:08.865Z,11.91
2023-04-04T12:41:53.350Z,12.19
2023-04-04T12:44:32.341Z,12.41
2023-04-04T12:47:06.418Z,12.79
2023-04-04T12:49:42.316Z,12.29
2023-04-04T12:52:27.057Z,13.12
2023-04-04T12:55:06.949Z,10.84
2023-04-04T12:57:35.291Z,12.08
2023-04-04T13:00:03.682Z,12.70
2023-04-04T13:02:30.054Z,11.80
2023-04-04T13:05:00.675Z,11.57
2023-04-04T13:07:30.572Z,12.44
2023-04-04T13:10:03.912Z,11.18
2023-04-04T13:12:59.008Z,11.49
2023-04-04T13:15:48.616Z,11.04
2023-04-04T13:18:24.139Z,11.57
2023-04-04T13:20:54.946Z,10.42
2023-04-04T13:23:23.179Z,12.23
2023-04-04T13:25:54.083Z,10.85
2023-04-04T13:28:26.503Z,9.18
2023-04-04T13:30:57.711Z,11.32
2023-04-04T13:33:23.964Z,12.35
2023-04-04T13:35:56.875Z,11.18
2023-04-04T13:38:28.322Z,10.46
2023-04-04T13:40:58.749Z,11.09
2023-04-04T13:43:31.628Z,10.08
2023-04-04T13:46:02.920Z,10.81
2023-04-04T13:48:33.514Z,10.88
2023-04-04T13:50:59.840Z,9.95
2023-04-04T13:53:30.528Z,10.02
2023-04-04T13:56:16.923Z,11.67
2023-04-04T13:58:50.641Z,12.73
2023-04-04T14:01:22.432Z,13.33
2023-04-04T14:03:53.009Z,11.73
2023-04-04T14:06:24.326Z,11.48
2023-04-04T14:08:55.046Z,10.20
2023-04-04T14:11:30.306Z,10.61
2023-04-04T14:14:01.073Z,9.78
2023-04-04T14:16:32.557Z,10.32
2023-04-04T14:19:03.889Z,12.06
2023-04-04T14:21:34.917Z,12.33
2023-04-04T14:24:09.980Z,12.57
2023-04-04T14:26:41.301Z,11.91
2023-04-04T14:29:12.148Z,12.92
2023-04-04T14:31:42.773Z,12.04
2023-04-04T14:34:13.328Z,11.87
2023-04-04T14:36:45.319Z,11.80
2023-04-04T14:39:16.024Z,12.19
2023-04-04T14:41:48.961Z,12.44
2023-04-04T14:44:21.180Z,12.39
2023-04-04T14:46:54.482Z,11.92
2023-04-04T14:49:28.756Z,10.57
2023-04-04T14:52:00.674Z,11.34
2023-04-04T14:54:31.664Z,10.38
2023-04-04T14:57:07.018Z,12.40
2023-04-04T14:59:37.792Z,12.90
2023-04-04T15:02:08.420Z,13.50
2023-04-04T15:04:39.299Z,13.43
2023-04-04T15:07:10.165Z,12.12
2023-04-04T15:09:41.318Z,10.41
2023-04-04T15:12:12.244Z,12.03
2023-04-04T15:14:46.041Z,10.80
2023-04-04T15:17:17.023Z,10.74
2023-04-04T15:19:47.536Z,11.30
2023-04-04T15:22:20.475Z,11.09
2023-04-04T15:24:51.685Z,9.82
2023-04-04T15:27:22.581Z,10.25
2023-04-04T15:29:53.651Z,10.20
2023-04-04T15:32:24.927Z,10.83
2023-04-04T15:34:57.647Z,11.21
2023-04-04T15:37:28.598Z,10.95
2023-04-04T15:40:03.693Z,10.11
2023-04-04T15:42:34.708Z,10.35
2023-04-04T15:45:07.156Z,10.41
2023-04-04T15:47:44.186Z,10.45
2023-04-04T15:50:15.896Z,10.70
2023-04-04T15:52:47.097Z,10.10
2023-04-04T15:55:18.962Z,11.12
2023-04-04T15:57:48.958Z,10.08
2023-04-04T16:00:19.972Z,9.08
2023-04-04T16:02:50.240Z,10.02
2023-04-04T16:05:24.095Z,10.82
2023-04-04T16:07:54.020Z,9.87
2023-04-04T16:10:24.431Z,11.08
2023-04-04T16:12:57.805Z,9.79
2023-04-04T16:15:28.421Z,9.23
2023-04-04T16:17:59.771Z,9.53
2023-04-04T16:20:29.942Z,10.46
2023-04-04T16:23:00.053Z,11.12
2023-04-04T16:25:29.894Z,10.12
2023-04-04T16:28:00.641Z,9.75
2023-04-04T16:30:34.828Z,9.31
2023-04-04T16:33:06.074Z,10.17
2023-04-04T16:35:36.618Z,9.04
2023-04-04T16:38:06.170Z,9.13
2023-04-04T16:40:36.681Z,9.77
2023-04-04T16:43:07.278Z,9.14
2023-04-04T16:45:37.497Z,8.99
2023-04-04T16:48:11.721Z,8.42
2023-04-04T16:50:41.813Z,8.87
2023-04-04T16:53:12.614Z,9.35
2023-04-04T16:55:43.180Z,9.41
2023-04-04T16:58:13.726Z,8.06
2023-04-04T17:00:44.680Z,8.41
2023-04-04T17:03:15.341Z,9.18
2023-04-04T17:05:49.127Z,9.73
2023-04-04T17:08:19.706Z,9.13
2023-04-04T17:10:51.104Z,9.75
2023-04-04T17:13:20.645Z,8.62
2023-04-04T17:15:50.942Z,8.50
2023-04-04T17:18:21.175Z,8.55
2023-04-04T17:20:51.765Z,8.98
2023-04-04T17:23:28.101Z,9.36
2023-04-04T17:25:59.158Z,8.93
2023-04-04T17:28:30.396Z,8.94
2023-04-04T17:31:06.946Z,8.23
2023-04-04T17:33:37.235Z,7.88
2023-04-04T17:36:08.364Z,8.98
2023-04-04T17:38:40.748Z,9.57
2023-04-04T17:41:12.016Z,8.68
2023-04-04T17:43:41.197Z,8.82
2023-04-04T17:46:11.929Z,8.72
2023-04-04T17:48:42.736Z,7.85
2023-04-04T17:51:13.214Z,8.19
2023-04-04T17:53:43.545Z,7.53
2023-04-04T17:56:15.156Z,8.09
2023-04-04T17:58:44.920Z,8.35
2023-04-04T18:01:15.587Z,7.09
2023-04-04T18:03:47.136Z,8.29
2023-04-04T18:06:20.432Z,7.77
2023-04-04T18:08:50.395Z,8.93
2023-04-04T18:11:20.399Z,8.72
2023-04-04T18:13:52.716Z,8.08
2023-04-04T18:16:23.341Z,9.04
2023-04-04T18:18:53.803Z,9.01
2023-04-04T18:21:24.397Z,9.22
2023-04-04T18:24:00.150Z,8.07
2023-04-04T18:26:31.845Z,9.35
2023-04-04T18:29:04.856Z,9.14
2023-04-04T18:31:37.841Z,9.36
2023-04-04T18:34:08.194Z,8.52
2023-04-04T18:36:39.123Z,8.98
2023-04-04T18:39:10.353Z,9.28
2023-04-04T18:41:39.874Z,8.92
2023-04-04T18:44:10.728Z,9.33
2023-04-04T18:46:41.612Z,9.06
2023-04-04T18:49:15.552Z,9.03
2023-04-04T18:51:46.883Z,9.26
2023-04-04T18:54:16.477Z,9.11
2023-04-04T18:56:47.325Z,8.69
2023-04-04T18:59:17.925Z,8.84
2023-04-04T19:01:47.670Z,9.13
2023-04-04T19:04:19.876Z,9.25
2023-04-04T19:06:54.895Z,8.69
2023-04-04T19:09:25.604Z,8.01
2023-04-04T19:11:55.474Z,9.09
2023-04-04T19:14:29.971Z,9.25
2023-04-04T19:17:02.081Z,9.38
2023-04-04T19:19:31.743Z,8.75
2023-04-04T19:22:01.861Z,9.08
2023-04-04T19:24:33.394Z,9.00
2023-04-04T19:27:04.285Z,9.08
2023-04-04T19:29:35.268Z,8.91
2023-04-04T19:32:16.682Z,9.29
2023-04-04T19:34:43.316Z,7.16
2023-04-04T19:37:14.632Z,9.23
2023-04-04T19:39:49.120Z,9.23
2023-04-04T19:42:26.355Z,9.21
2023-04-04T19:44:52.507Z,9.11
2023-04-04T19:47:23.364Z,9.15
2023-04-04T19:49:54.347Z,9.17
2023-04-04T19:52:25.317Z,9.16
2023-04-04T19:54:55.733Z,9.26
2023-04-04T19:57:28.966Z,9.16
2023-04-04T20:00:12.515Z,9.33
2023-04-04T20:02:52.030Z,9.21
2023-04-04T20:05:28.133Z,9.33
2023-04-04T20:07:54.808Z,9.24
2023-04-04T20:10:36.490Z,8.70
2023-04-04T20:13:07.853Z,9.02
2023-04-04T20:15:55.192Z,8.90
2023-04-04T20:18:31.070Z,8.88
2023-04-04T20:21:06.138Z,8.97
2023-04-04T20:23:51.793Z,8.62
2023-04-04T20:26:34.748Z,9.04
2023-04-04T20:29:13.558Z,8.90
2023-04-04T20:31:46.450Z,8.64
2023-04-04T20:34:45.962Z,8.81
2023-04-04T20:37:21.335Z,8.51
2023-04-04T20:39:54.365Z,8.75
2023-04-04T20:42:39.425Z,9.00
2023-04-04T20:45:10.452Z,9.03
2023-04-04T20:47:50.611Z,8.94
2023-04-04T20:50:19.926Z,8.78
2023-04-04T20:52:49.749Z,8.35
2023-04-04T20:55:20.007Z,4.70
2023-04-04T20:58:06.000Z,8.82
2023-04-04T21:00:33.155Z,8.87
2023-04-04T21:03:01.507Z,9.03
2023-04-04T21:05:29.761Z,8.59
2023-04-04T21:07:57.492Z,7.70
2023-04-04T21:10:45.595Z,7.43
2023-04-04T21:13:25.996Z,8.85
2023-04-04T21:16:16.048Z,8.76
2023-04-04T21:18:59.002Z,8.75
2023-04-04T21:21:29.832Z,8.54
2023-04-04T21:24:00.966Z,8.80
2023-04-04T21:26:35.846Z,8.73
2023-04-04T21:29:08.337Z,8.80
2023-04-04T21:31:40.718Z,8.58
2023-04-04T21:34:15.840Z,8.53
2023-04-04T21:36:59.667Z,7.07
2023-04-04T21:39:30.961Z,7.90
2023-04-04T21:42:04.608Z,8.14
2023-04-04T21:44:37.989Z,8.22
2023-04-04T21:47:08.943Z,7.72
2023-04-04T21:49:40.186Z,7.70
2023-04-04T21:52:11.119Z,7.09
2023-04-04T21:54:42.167Z,7.82
2023-04-04T21:57:15.228Z,8.45
2023-04-04T21:59:46.764Z,8.00
2023-04-04T22:02:17.433Z,7.51
2023-04-04T22:04:52.596Z,8.00
2023-04-04T22:07:23.325Z,8.24
2023-04-04T22:09:57.984Z,8.36
2023-04-04T22:12:32.842Z,7.24
2023-04-04T22:15:03.952Z,8.35
2023-04-04T22:17:35.524Z,8.41
2023-04-04T22:20:10.471Z,8.33
2023-04-04T22:22:43.054Z,8.40
2023-04-04T22:25:14.836Z,8.23
2023-04-04T22:27:48.949Z,8.30
2023-04-04T22:30:20.940Z,8.18
2023-04-04T22:32:58.700Z,7.97
2023-04-04T22:35:27.401Z,7.76
2023-04-04T22:38:02.437Z,7.97
2023-04-04T22:40:31.606Z,6.82
2023-04-04T22:43:01.139Z,6.92
2023-04-04T22:45:36.752Z,7.81
2023-04-04T22:48:06.540Z,7.77
2023-04-04T22:50:37.158Z,7.55
2023-04-04T22:53:12.319Z,7.65
2023-04-04T22:55:39.364Z,7.95
2023-04-04T22:58:08.512Z,7.59
2023-04-04T23:00:39.653Z,7.34
2023-04-04T23:03:15.941Z,7.59
2023-04-04T23:05:46.438Z,7.24
2023-04-04T23:08:17.215Z,7.30
2023-04-04T23:10:50.499Z,6.52
2023-04-04T23:13:21.202Z,6.53
2023-04-04T23:15:51.763Z,5.07
2023-04-04T23:18:21.779Z,7.04
2023-04-04T23:20:52.371Z,7.48
2023-04-04T23:23:22.670Z,6.79
2023-04-04T23:25:53.951Z,6.86
2023-04-04T23:28:28.551Z,5.22
2023-04-04T23:30:58.334Z,6.36
2023-04-04T23:33:28.886Z,6.67
2023-04-04T23:35:59.183Z,6.84
2023-04-04T23:38:29.646Z,6.77
2023-04-04T23:41:00.100Z,6.83
2023-04-04T23:43:32.285Z,6.56
2023-04-04T23:46:07.230Z,6.61
2023-04-04T23:48:37.462Z,6.03
2023-04-04T23:51:07.925Z,5.71
2023-04-04T23:53:42.021Z,6.21
2023-04-04T23:56:12.921Z,6.25
2023-04-04T23:58:43.212Z,6.02
